sensor_id;sensor_type;location;lat;lon;timestamp;pressure;altitude;pressure_sealevel;temperature;humidity
46583;BME280;32309;48.858;8.252;2022-10-16T00:00:34;100084.63;;;15.26;97.97
46583;BME280;32309;48.858;8.252;2022-10-16T00:02:34;100094.94;;;15.27;97.69
46583;BME280;32309;48.858;8.252;2022-10-16T00:04:35;100096.72;;;15.27;97.38
46583;BME280;32309;48.858;8.252;2022-10-16T00:06:35;100092.31;;;15.27;97.94
46583;BME280;32309;48.858;8.252;2022-10-16T00:08:35;100098.47;;;15.26;98.12
46583;BME280;32309;48.858;8.252;2022-10-16T00:10:36;100086.38;;;15.25;98.30
46583;BME280;32309;48.858;8.252;2022-10-16T00:12:36;100087.09;;;15.27;98.22
46583;BME280;32309;48.858;8.252;2022-10-16T00:14:36;100077.59;;;15.26;98.42
46583;BME280;32309;48.858;8.252;2022-10-16T00:16:37;100089.84;;;15.26;98.58
46583;BME280;32309;48.858;8.252;2022-10-16T00:18:37;100075.13;;;15.25;98.50
46583;BME280;32309;48.858;8.252;2022-10-16T00:20:37;100075.94;;;15.25;98.33
46583;BME280;32309;48.858;8.252;2022-10-16T00:22:40;100081.16;;;15.25;98.48
46583;BME280;32309;48.858;8.252;2022-10-16T00:24:40;100081.16;;;15.25;98.41
46583;BME280;32309;48.858;8.252;2022-10-16T00:26:40;100076.78;;;15.26;98.40
46583;BME280;32309;48.858;8.252;2022-10-16T00:28:45;100075.00;;;15.26;98.10
46583;BME280;32309;48.858;8.252;2022-10-16T00:30:45;100074.28;;;15.24;98.83
46583;BME280;32309;48.858;8.252;2022-10-16T00:32:47;100072.50;;;15.25;98.60
46583;BME280;32309;48.858;8.252;2022-10-16T00:34:48;100073.44;;;15.24;98.65
46583;BME280;32309;48.858;8.252;2022-10-16T00:36:48;100070.84;;;15.24;98.30
46583;BME280;32309;48.858;8.252;2022-10-16T00:38:55;100076.06;;;15.24;98.54
46583;BME280;32309;48.858;8.252;2022-10-16T00:40:56;100068.22;;;15.24;99.06
46583;BME280;32309;48.858;8.252;2022-10-16T00:42:56;100077.97;;;15.22;98.98
46583;BME280;32309;48.858;8.252;2022-10-16T00:44:56;100077.13;;;15.21;98.94
46583;BME280;32309;48.858;8.252;2022-10-16T00:46:57;100081.66;;;15.19;99.34
46583;BME280;32309;48.858;8.252;2022-10-16T00:49:01;100086.03;;;15.19;99.54
46583;BME280;32309;48.858;8.252;2022-10-16T00:51:03;100095.66;;;15.18;99.87
46583;BME280;32309;48.858;8.252;2022-10-16T00:53:04;100092.09;;;15.19;99.40
46583;BME280;32309;48.858;8.252;2022-10-16T00:55:04;100097.31;;;15.19;99.70
46583;BME280;32309;48.858;8.252;2022-10-16T00:57:06;100103.38;;;15.20;99.97
46583;BME280;32309;48.858;8.252;2022-10-16T00:59:08;100099.94;;;15.19;99.94
46583;BME280;32309;48.858;8.252;2022-10-16T01:01:11;100100.75;;;15.20;100.00
46583;BME280;32309;48.858;8.252;2022-10-16T01:03:23;100103.25;;;15.21;99.57
46583;BME280;32309;48.858;8.252;2022-10-16T01:05:25;100096.34;;;15.20;100.00
46583;BME280;32309;48.858;8.252;2022-10-16T01:12:06;100096.59;;;15.17;100.00
46583;BME280;32309;48.858;8.252;2022-10-16T01:14:11;100100.88;;;15.18;100.00
46583;BME280;32309;48.858;8.252;2022-10-16T01:16:18;100098.28;;;15.18;100.00
46583;BME280;32309;48.858;8.252;2022-10-16T01:18:30;100098.28;;;15.18;100.00
46583;BME280;32309;48.858;8.252;2022-10-16T01:20:56;100102.56;;;15.19;100.00
46583;BME280;32309;48.858;8.252;2022-10-16T01:25:00;100112.88;;;15.21;99.79
46583;BME280;32309;48.858;8.252;2022-10-16T01:27:15;100110.25;;;15.21;100.00
46583;BME280;32309;48.858;8.252;2022-10-16T01:29:18;100111.91;;;15.22;100.00
46583;BME280;32309;48.858;8.252;2022-10-16T01:31:22;100112.75;;;15.22;100.00
46583;BME280;32309;48.858;8.252;2022-10-16T01:33:25;100109.31;;;15.22;100.00
46583;BME280;32309;48.858;8.252;2022-10-16T01:35:29;100093.88;;;15.19;99.68
46583;BME280;32309;48.858;8.252;2022-10-16T01:37:35;100089.72;;;15.16;100.00
46583;BME280;32309;48.858;8.252;2022-10-16T01:39:37;100097.81;;;15.13;100.00
46583;BME280;32309;48.858;8.252;2022-10-16T01:41:41;100099.47;;;15.14;100.00
46583;BME280;32309;48.858;8.252;2022-10-16T01:43:45;100084.75;;;15.13;100.00
46583;BME280;32309;48.858;8.252;2022-10-16T01:45:46;100091.66;;;15.14;100.00
46583;BME280;32309;48.858;8.252;2022-10-16T01:47:48;100087.25;;;15.14;100.00
46583;BME280;32309;48.858;8.252;2022-10-16T01:49:49;100084.63;;;15.14;100.00
46583;BME280;32309;48.858;8.252;2022-10-16T01:51:53;100078.72;;;15.12;100.00
46583;BME280;32309;48.858;8.252;2022-10-16T01:53:56;100074.44;;;15.11;100.00
46583;BME280;32309;48.858;8.252;2022-10-16T01:55:57;100076.19;;;15.11;100.00
46583;BME280;32309;48.858;8.252;2022-10-16T01:57:58;100088.31;;;15.12;100.00
46583;BME280;32309;48.858;8.252;2022-10-16T02:00:01;100097.94;;;15.11;100.00
46583;BME280;32309;48.858;8.252;2022-10-16T02:02:04;100092.84;;;15.10;100.00
46583;BME280;32309;48.858;8.252;2022-10-16T02:04:11;100090.91;;;15.12;100.00
46583;BME280;32309;48.858;8.252;2022-10-16T02:06:13;100093.53;;;15.12;100.00
46583;BME280;32309;48.858;8.252;2022-10-16T02:08:14;100099.47;;;15.14;100.00
46583;BME280;32309;48.858;8.252;2022-10-16T02:10:14;100100.41;;;15.13;100.00
46583;BME280;32309;48.858;8.252;2022-10-16T02:14:21;100103.03;;;15.13;100.00
46583;BME280;32309;48.858;8.252;2022-10-16T02:16:35;100107.31;;;15.14;100.00
46583;BME280;32309;48.858;8.252;2022-10-16T02:18:35;100115.94;;;15.14;100.00
46583;BME280;32309;48.858;8.252;2022-10-16T02:20:38;100108.25;;;15.13;100.00
46583;BME280;32309;48.858;8.252;2022-10-16T02:22:45;100106.47;;;15.13;100.00
46583;BME280;32309;48.858;8.252;2022-10-16T02:26:57;100106.47;;;15.13;100.00
46583;BME280;32309;48.858;8.252;2022-10-16T02:29:01;100104.81;;;15.12;100.00
46583;BME280;32309;48.858;8.252;2022-10-16T02:31:04;100103.16;;;15.11;100.00
46583;BME280;32309;48.858;8.252;2022-10-16T02:33:09;100105.03;;;15.09;99.63
46583;BME280;32309;48.858;8.252;2022-10-16T02:35:10;100105.31;;;15.06;100.00
46583;BME280;32309;48.858;8.252;2022-10-16T02:37:11;100116.56;;;15.07;100.00
46583;BME280;32309;48.858;8.252;2022-10-16T02:39:11;100110.38;;;15.08;100.00
46583;BME280;32309;48.858;8.252;2022-10-16T02:41:12;100106.13;;;15.07;100.00
46583;BME280;32309;48.858;8.252;2022-10-16T02:43:12;100113.94;;;15.07;100.00
46583;BME280;32309;48.858;8.252;2022-10-16T02:45:13;100118.34;;;15.06;100.00
46583;BME280;32309;48.858;8.252;2022-10-16T02:47:13;100113.13;;;15.06;100.00
46583;BME280;32309;48.858;8.252;2022-10-16T02:49:13;100113.25;;;15.05;100.00
46583;BME280;32309;48.858;8.252;2022-10-16T02:51:13;100109.78;;;15.04;100.00
46583;BME280;32309;48.858;8.252;2022-10-16T02:53:14;100114.19;;;15.04;100.00
46583;BME280;32309;48.858;8.252;2022-10-16T02:55:14;100120.25;;;15.04;100.00
46583;BME280;32309;48.858;8.252;2022-10-16T02:57:14;100108.97;;;15.04;100.00
46583;BME280;32309;48.858;8.252;2022-10-16T02:59:14;100117.75;;;15.03;100.00
46583;BME280;32309;48.858;8.252;2022-10-16T03:01:14;100116.09;;;15.02;100.00
46583;BME280;32309;48.858;8.252;2022-10-16T03:03:16;100116.00;;;15.03;100.00
46583;BME280;32309;48.858;8.252;2022-10-16T03:05:16;100109.22;;;15.01;100.00
46583;BME280;32309;48.858;8.252;2022-10-16T03:07:17;100124.97;;;14.99;100.00
46583;BME280;32309;48.858;8.252;2022-10-16T03:09:17;100125.84;;;15.00;100.00
46583;BME280;32309;48.858;8.252;2022-10-16T03:11:17;100128.44;;;15.00;100.00
46583;BME280;32309;48.858;8.252;2022-10-16T03:13:18;100126.91;;;14.97;100.00
46583;BME280;32309;48.858;8.252;2022-10-16T03:15:20;100128.66;;;14.96;100.00
46583;BME280;32309;48.858;8.252;2022-10-16T03:17:20;100127.16;;;14.94;100.00
46583;BME280;32309;48.858;8.252;2022-10-16T03:19:20;100131.41;;;14.95;100.00
46583;BME280;32309;48.858;8.252;2022-10-16T03:21:20;100121.94;;;14.94;100.00
46583;BME280;32309;48.858;8.252;2022-10-16T03:23:21;100120.97;;;14.95;100.00
46583;BME280;32309;48.858;8.252;2022-10-16T03:25:21;100119.31;;;14.94;100.00
46583;BME280;32309;48.858;8.252;2022-10-16T03:27:21;100119.31;;;14.94;100.00
46583;BME280;32309;48.858;8.252;2022-10-16T03:29:21;100130.72;;;14.93;100.00
46583;BME280;32309;48.858;8.252;2022-10-16T03:31:21;100127.97;;;14.94;100.00
46583;BME280;32309;48.858;8.252;2022-10-16T03:33:22;100133.19;;;14.94;100.00
46583;BME280;32309;48.858;8.252;2022-10-16T03:35:22;100134.00;;;14.95;100.00
46583;BME280;32309;48.858;8.252;2022-10-16T03:37:23;100127.97;;;14.94;100.00
46583;BME280;32309;48.858;8.252;2022-10-16T03:39:23;100126.19;;;14.95;100.00
46583;BME280;32309;48.858;8.252;2022-10-16T03:41:23;100132.25;;;14.95;100.00
46583;BME280;32309;48.858;8.252;2022-10-16T03:43:23;100133.88;;;14.96;100.00
46583;BME280;32309;48.858;8.252;2022-10-16T03:45:24;100126.91;;;14.97;100.00
46583;BME280;32309;48.858;8.252;2022-10-16T03:47:24;100136.50;;;14.96;100.00
46583;BME280;32309;48.858;8.252;2022-10-16T03:49:24;100128.78;;;14.95;100.00
46583;BME280;32309;48.858;8.252;2022-10-16T03:51:24;100126.19;;;14.95;100.00
46583;BME280;32309;48.858;8.252;2022-10-16T03:53:25;100121.94;;;14.94;100.00
46583;BME280;32309;48.858;8.252;2022-10-16T03:55:25;100124.53;;;14.94;100.00
46583;BME280;32309;48.858;8.252;2022-10-16T03:57:25;100122.75;;;14.94;100.00
46583;BME280;32309;48.858;8.252;2022-10-16T03:59:25;100115.88;;;14.93;100.00
46583;BME280;32309;48.858;8.252;2022-10-16T04:01:25;100123.56;;;14.95;100.00
46583;BME280;32309;48.858;8.252;2022-10-16T04:03:25;100130.47;;;14.96;100.00
46583;BME280;32309;48.858;8.252;2022-10-16T04:05:26;100127.03;;;14.95;100.00
46583;BME280;32309;48.858;8.252;2022-10-16T04:07:26;100129.63;;;14.95;100.00
46583;BME280;32309;48.858;8.252;2022-10-16T04:09:26;100131.41;;;14.95;100.00
46583;BME280;32309;48.858;8.252;2022-10-16T04:11:27;100132.38;;;14.94;100.00
46583;BME280;32309;48.858;8.252;2022-10-16T04:13:27;100134.97;;;14.94;100.00
46583;BME280;32309;48.858;8.252;2022-10-16T04:15:27;100143.75;;;14.93;100.00
46583;BME280;32309;48.858;8.252;2022-10-16T04:17:27;100150.63;;;14.94;100.00
46583;BME280;32309;48.858;8.252;2022-10-16T04:19:27;100159.28;;;14.94;100.00
46583;BME280;32309;48.858;8.252;2022-10-16T04:21:28;100154.06;;;14.94;100.00
46583;BME280;32309;48.858;8.252;2022-10-16T04:23:28;100159.16;;;14.96;100.00
46583;BME280;32309;48.858;8.252;2022-10-16T04:25:28;100160.94;;;14.95;100.00
46583;BME280;32309;48.858;8.252;2022-10-16T04:27:28;100167.13;;;14.94;100.00
46583;BME280;32309;48.858;8.252;2022-10-16T04:29:31;100168.78;;;14.95;100.00
46583;BME280;32309;48.858;8.252;2022-10-16T04:31:31;100167.13;;;14.94;100.00
46583;BME280;32309;48.858;8.252;2022-10-16T04:33:31;100164.50;;;14.94;100.00
46583;BME280;32309;48.858;8.252;2022-10-16T04:35:31;100169.59;;;14.96;100.00
46583;BME280;32309;48.858;8.252;2022-10-16T04:37:32;100170.53;;;14.95;100.00
46583;BME280;32309;48.858;8.252;2022-10-16T04:39:32;100166.28;;;14.94;100.00
46583;BME280;32309;48.858;8.252;2022-10-16T04:41:32;100159.41;;;14.93;100.00
46583;BME280;32309;48.858;8.252;2022-10-16T04:43:32;100155.13;;;14.92;100.00
46583;BME280;32309;48.858;8.252;2022-10-16T04:45:32;100158.00;;;14.89;100.00
46583;BME280;32309;48.858;8.252;2022-10-16T04:47:33;100168.31;;;14.90;100.00
46583;BME280;32309;48.858;8.252;2022-10-16T04:49:33;100177.91;;;14.90;100.00
46583;BME280;32309;48.858;8.252;2022-10-16T04:51:33;100176.13;;;14.90;100.00
46583;BME280;32309;48.858;8.252;2022-10-16T04:53:33;100177.81;;;14.91;100.00
46583;BME280;32309;48.858;8.252;2022-10-16T04:55:34;100180.41;;;14.91;100.00
46583;BME280;32309;48.858;8.252;2022-10-16T04:57:34;100190.00;;;14.91;100.00
46583;BME280;32309;48.858;8.252;2022-10-16T04:59:35;100181.22;;;14.92;100.00
46583;BME280;32309;48.858;8.252;2022-10-16T05:01:35;100183.84;;;14.92;100.00
46583;BME280;32309;48.858;8.252;2022-10-16T05:03:35;100185.50;;;14.93;100.00
46583;BME280;32309;48.858;8.252;2022-10-16T05:05:35;100195.09;;;14.92;100.00
46583;BME280;32309;48.858;8.252;2022-10-16T05:07:35;100191.66;;;14.92;100.00
46583;BME280;32309;48.858;8.252;2022-10-16T05:09:36;100193.34;;;14.93;100.00
46583;BME280;32309;48.858;8.252;2022-10-16T05:11:36;100194.16;;;14.93;100.00
46583;BME280;32309;48.858;8.252;2022-10-16T05:13:36;100191.53;;;14.93;100.00
46583;BME280;32309;48.858;8.252;2022-10-16T05:15:36;100198.69;;;14.91;100.00
46583;BME280;32309;48.858;8.252;2022-10-16T05:17:36;100193.47;;;14.91;100.00
46583;BME280;32309;48.858;8.252;2022-10-16T05:19:37;100199.50;;;14.92;100.00
46583;BME280;32309;48.858;8.252;2022-10-16T05:21:37;100199.50;;;14.92;100.00
46583;BME280;32309;48.858;8.252;2022-10-16T05:23:37;100202.09;;;14.92;100.00
46583;BME280;32309;48.858;8.252;2022-10-16T05:25:37;100197.00;;;14.90;100.00
46583;BME280;32309;48.858;8.252;2022-10-16T05:27:38;100200.44;;;14.91;100.00
46583;BME280;32309;48.858;8.252;2022-10-16T05:29:38;100197.00;;;14.90;100.00
46583;BME280;32309;48.858;8.252;2022-10-16T05:31:38;100194.53;;;14.89;100.00
46583;BME280;32309;48.858;8.252;2022-10-16T05:33:38;100192.84;;;14.88;100.00
46583;BME280;32309;48.858;8.252;2022-10-16T05:35:38;100198.06;;;14.88;100.00
46583;BME280;32309;48.858;8.252;2022-10-16T05:37:39;100193.78;;;14.87;100.00
46583;BME280;32309;48.858;8.252;2022-10-16T05:39:39;100194.63;;;14.87;100.00
46583;BME280;32309;48.858;8.252;2022-10-16T05:41:39;100197.22;;;14.87;100.00
46583;BME280;32309;48.858;8.252;2022-10-16T05:43:39;100202.34;;;14.89;100.00
46583;BME280;32309;48.858;8.252;2022-10-16T05:45:39;100202.34;;;14.89;100.00
46583;BME280;32309;48.858;8.252;2022-10-16T05:47:39;100205.91;;;14.88;100.00
46583;BME280;32309;48.858;8.252;2022-10-16T05:49:40;100199.75;;;14.89;100.00
46583;BME280;32309;48.858;8.252;2022-10-16T05:51:40;100193.69;;;14.88;100.00
46583;BME280;32309;48.858;8.252;2022-10-16T05:53:41;100199.97;;;14.86;100.00
46583;BME280;32309;48.858;8.252;2022-10-16T05:55:41;100203.53;;;14.85;100.00
46583;BME280;32309;48.858;8.252;2022-10-16T05:57:42;100209.69;;;14.84;100.00
46583;BME280;32309;48.858;8.252;2022-10-16T05:59:42;100209.69;;;14.84;100.00
46583;BME280;32309;48.858;8.252;2022-10-16T06:01:46;100210.63;;;14.83;100.00
46583;BME280;32309;48.858;8.252;2022-10-16T06:03:55;100223.69;;;14.83;100.00
46583;BME280;32309;48.858;8.252;2022-10-16T06:05:55;100227.22;;;14.81;100.00
46583;BME280;32309;48.858;8.252;2022-10-16T06:07:55;100229.03;;;14.81;100.00
46583;BME280;32309;48.858;8.252;2022-10-16T06:09:56;100232.44;;;14.81;100.00
46583;BME280;32309;48.858;8.252;2022-10-16T06:11:56;100230.78;;;14.80;100.00
46583;BME280;32309;48.858;8.252;2022-10-16T06:13:57;100223.69;;;14.83;100.00
46583;BME280;32309;48.858;8.252;2022-10-16T06:15:58;100217.66;;;14.82;100.00
46583;BME280;32309;48.858;8.252;2022-10-16T06:17:59;100213.25;;;14.83;100.00
46583;BME280;32309;48.858;8.252;2022-10-16T06:19:59;100208.97;;;14.81;100.00
46583;BME280;32309;48.858;8.252;2022-10-16T06:21:59;100215.13;;;14.80;100.00
46583;BME280;32309;48.858;8.252;2022-10-16T06:24:00;100220.34;;;14.80;100.00
46583;BME280;32309;48.858;8.252;2022-10-16T06:26:04;100228.09;;;14.82;100.00
46583;BME280;32309;48.858;8.252;2022-10-16T06:28:04;100234.94;;;14.83;100.00
46583;BME280;32309;48.858;8.252;2022-10-16T06:30:04;100237.56;;;14.83;100.00
46583;BME280;32309;48.858;8.252;2022-10-16T06:32:05;100241.00;;;14.84;100.00
46583;BME280;32309;48.858;8.252;2022-10-16T06:34:05;100241.00;;;14.84;100.00
46583;BME280;32309;48.858;8.252;2022-10-16T06:36:12;100244.44;;;14.84;100.00
46583;BME280;32309;48.858;8.252;2022-10-16T06:38:14;100247.91;;;14.85;100.00
46583;BME280;32309;48.858;8.252;2022-10-16T06:40:14;100246.94;;;14.86;100.00
46583;BME280;32309;48.858;8.252;2022-10-16T06:42:14;100235.66;;;14.85;100.00
46583;BME280;32309;48.858;8.252;2022-10-16T06:44:15;100237.34;;;14.86;100.00
46583;BME280;32309;48.858;8.252;2022-10-16T06:46:16;100228.53;;;14.87;100.00
46583;BME280;32309;48.858;8.252;2022-10-16T06:48:18;100238.03;;;14.88;100.00
46583;BME280;32309;48.858;8.252;2022-10-16T06:50:19;100232.94;;;14.87;100.00
46583;BME280;32309;48.858;8.252;2022-10-16T06:52:19;100238.97;;;14.87;100.00
46583;BME280;32309;48.858;8.252;2022-10-16T06:54:19;100246.72;;;14.89;100.00
46583;BME280;32309;48.858;8.252;2022-10-16T06:56:23;100253.56;;;14.90;100.00
46583;BME280;32309;48.858;8.252;2022-10-16T06:58:24;100249.19;;;14.90;100.00
46583;BME280;32309;48.858;8.252;2022-10-16T07:00:24;100258.69;;;14.91;100.00
46583;BME280;32309;48.858;8.252;2022-10-16T07:02:24;100264.63;;;14.93;100.00
46583;BME280;32309;48.858;8.252;2022-10-16T07:04:25;100257.63;;;14.94;100.00
46583;BME280;32309;48.858;8.252;2022-10-16T07:06:25;100258.34;;;14.96;100.00
46583;BME280;32309;48.858;8.252;2022-10-16T07:08:26;100260.69;;;14.99;100.00
46583;BME280;32309;48.858;8.252;2022-10-16T07:10:26;100268.31;;;15.02;100.00
46583;BME280;32309;48.858;8.252;2022-10-16T07:12:26;100268.19;;;15.04;100.00
46583;BME280;32309;48.858;8.252;2022-10-16T07:14:27;100272.34;;;15.06;100.00
46583;BME280;32309;48.858;8.252;2022-10-16T07:16:28;100267.81;;;15.08;100.00
46583;BME280;32309;48.858;8.252;2022-10-16T07:18:29;100271.03;;;15.12;99.54
46583;BME280;32309;48.858;8.252;2022-10-16T07:20:29;100272.59;;;15.14;100.00
46583;BME280;32309;48.858;8.252;2022-10-16T07:22:29;100281.97;;;15.17;99.80
46583;BME280;32309;48.858;8.252;2022-10-16T07:24:29;100283.50;;;15.20;100.00
46583;BME280;32309;48.858;8.252;2022-10-16T07:26:30;100285.06;;;15.22;99.51
46583;BME280;32309;48.858;8.252;2022-10-16T07:28:31;100287.41;;;15.25;99.64
46583;BME280;32309;48.858;8.252;2022-10-16T07:30:34;100283.84;;;15.26;99.60
46583;BME280;32309;48.858;8.252;2022-10-16T07:32:34;100288.97;;;15.28;99.38
46583;BME280;32309;48.858;8.252;2022-10-16T07:34:34;100292.31;;;15.30;99.36
46583;BME280;32309;48.858;8.252;2022-10-16T07:36:34;100293.84;;;15.33;99.49
46583;BME280;32309;48.858;8.252;2022-10-16T07:38:34;100298.81;;;15.36;99.18
46583;BME280;32309;48.858;8.252;2022-10-16T07:40:35;100310.81;;;15.38;99.21
46583;BME280;32309;48.858;8.252;2022-10-16T07:42:35;100301.91;;;15.41;98.93
46583;BME280;32309;48.858;8.252;2022-10-16T07:44:35;100315.56;;;15.44;99.16
46583;BME280;32309;48.858;8.252;2022-10-16T07:46:35;100315.44;;;15.46;98.81
46583;BME280;32309;48.858;8.252;2022-10-16T07:48:35;100313.44;;;15.50;99.08
46583;BME280;32309;48.858;8.252;2022-10-16T07:50:36;100311.38;;;15.53;99.04
46583;BME280;32309;48.858;8.252;2022-10-16T07:52:36;100319.00;;;15.56;99.56
46583;BME280;32309;48.858;8.252;2022-10-16T07:54:36;100318.88;;;15.58;99.18
46583;BME280;32309;48.858;8.252;2022-10-16T07:56:36;100324.84;;;15.60;99.06
46583;BME280;32309;48.858;8.252;2022-10-16T07:58:37;100340.25;;;15.63;99.04
46583;BME280;32309;48.858;8.252;2022-10-16T08:00:37;100333.84;;;15.67;99.14
46583;BME280;32309;48.858;8.252;2022-10-16T08:02:37;100331.81;;;15.71;99.56
46583;BME280;32309;48.858;8.252;2022-10-16T08:04:37;100339.16;;;15.77;99.71
46583;BME280;32309;48.858;8.252;2022-10-16T08:06:38;100341.56;;;15.80;99.03
46583;BME280;32309;48.858;8.252;2022-10-16T08:08:38;100338.72;;;15.83;99.00
46583;BME280;32309;48.858;8.252;2022-10-16T08:10:38;100326.25;;;15.87;99.53
46583;BME280;32309;48.858;8.252;2022-10-16T08:12:38;100332.19;;;15.89;98.82
46583;BME280;32309;48.858;8.252;2022-10-16T08:14:39;100325.78;;;15.93;98.66
46583;BME280;32309;48.858;8.252;2022-10-16T08:16:39;100323.03;;;15.94;98.44
46583;BME280;32309;48.858;8.252;2022-10-16T08:18:39;100324.69;;;15.95;97.98
46583;BME280;32309;48.858;8.252;2022-10-16T08:20:40;100318.38;;;15.98;97.39
46583;BME280;32309;48.858;8.252;2022-10-16T08:22:41;100318.38;;;15.98;97.37
46583;BME280;32309;48.858;8.252;2022-10-16T08:24:41;100315.75;;;15.98;97.53
46583;BME280;32309;48.858;8.252;2022-10-16T08:26:42;100316.63;;;15.99;97.69
46583;BME280;32309;48.858;8.252;2022-10-16T08:28:42;100316.47;;;16.00;97.03
46583;BME280;32309;48.858;8.252;2022-10-16T08:30:42;100325.06;;;16.02;96.86
46583;BME280;32309;48.858;8.252;2022-10-16T08:32:42;100315.28;;;16.04;96.86
46583;BME280;32309;48.858;8.252;2022-10-16T08:34:42;100317.63;;;16.07;96.64
46583;BME280;32309;48.858;8.252;2022-10-16T08:36:43;100338.34;;;16.10;96.99
46583;BME280;32309;48.858;8.252;2022-10-16T08:38:43;100336.88;;;16.18;96.78
46583;BME280;32309;48.858;8.252;2022-10-16T08:40:43;100342.81;;;16.20;96.57
46583;BME280;32309;48.858;8.252;2022-10-16T08:42:51;100339.72;;;16.26;97.09
46583;BME280;32309;48.858;8.252;2022-10-16T08:45:02;100347.19;;;16.30;96.56
46583;BME280;32309;48.858;8.252;2022-10-16T08:49:10;100348.25;;;16.39;96.43
46583;BME280;32309;48.858;8.252;2022-10-16T08:51:15;100355.09;;;16.40;95.87
46583;BME280;32309;48.858;8.252;2022-10-16T08:53:20;100358.44;;;16.42;94.78
46583;BME280;32309;48.858;8.252;2022-10-16T08:55:31;100350.47;;;16.44;94.41
46583;BME280;32309;48.858;8.252;2022-10-16T08:57:33;100352.13;;;16.45;94.38
46583;BME280;32309;48.858;8.252;2022-10-16T08:59:33;100355.47;;;16.47;94.37
46583;BME280;32309;48.858;8.252;2022-10-16T09:01:51;100358.66;;;16.51;94.54
46583;BME280;32309;48.858;8.252;2022-10-16T09:05:54;100375.53;;;16.58;93.80
46583;BME280;32309;48.858;8.252;2022-10-16T09:10:08;100390.34;;;16.69;93.56
46583;BME280;32309;48.858;8.252;2022-10-16T09:12:12;100393.28;;;16.75;93.50
46583;BME280;32309;48.858;8.252;2022-10-16T09:16:24;100400.97;;;16.88;93.22
46583;BME280;32309;48.858;8.252;2022-10-16T09:20:41;100393.47;;;16.95;92.15
46583;BME280;32309;48.858;8.252;2022-10-16T09:22:43;100397.63;;;16.98;91.56
46583;BME280;32309;48.858;8.252;2022-10-16T09:24:43;100396.41;;;17.02;91.68
46583;BME280;32309;48.858;8.252;2022-10-16T09:29:21;100399.94;;;17.12;90.97
46583;BME280;32309;48.858;8.252;2022-10-16T09:44:30;100423.63;;;17.32;89.85
46583;BME280;32309;48.858;8.252;2022-10-16T09:47:00;100418.41;;;17.32;89.31
46583;BME280;32309;48.858;8.252;2022-10-16T09:49:02;100431.38;;;17.33;89.89
46583;BME280;32309;48.858;8.252;2022-10-16T09:54:01;100431.22;;;17.35;89.21
46583;BME280;32309;48.858;8.252;2022-10-16T09:56:01;100426.72;;;17.37;89.60
46583;BME280;32309;48.858;8.252;2022-10-16T09:58:11;100430.72;;;17.41;90.31
46583;BME280;32309;48.858;8.252;2022-10-16T10:00:15;100433.34;;;17.41;90.63
46583;BME280;32309;48.858;8.252;2022-10-16T10:02:17;100436.41;;;17.46;89.63
46583;BME280;32309;48.858;8.252;2022-10-16T10:04:18;100439.59;;;17.50;89.93
46583;BME280;32309;48.858;8.252;2022-10-16T10:06:25;100428.97;;;17.51;89.78
46583;BME280;32309;48.858;8.252;2022-10-16T10:55:14;100443.88;;;18.63;83.52
46583;BME280;32309;48.858;8.252;2022-10-16T10:57:21;100447.78;;;18.69;84.20
46583;BME280;32309;48.858;8.252;2022-10-16T11:01:33;100446.81;;;18.79;81.63
46583;BME280;32309;48.858;8.252;2022-10-16T11:08:02;100440.63;;;18.90;81.13
46583;BME280;32309;48.858;8.252;2022-10-16T11:10:13;100431.09;;;18.99;82.27
46583;BME280;32309;48.858;8.252;2022-10-16T11:12:31;100433.13;;;19.05;82.75
46583;BME280;32309;48.858;8.252;2022-10-16T11:14:35;100425.25;;;19.15;84.34
46583;BME280;32309;48.858;8.252;2022-10-16T11:16:43;100430.94;;;19.20;80.63
46583;BME280;32309;48.858;8.252;2022-10-16T11:21:08;100433.38;;;19.32;80.22
46583;BME280;32309;48.858;8.252;2022-10-16T11:23:25;100424.09;;;19.37;82.57
46583;BME280;32309;48.858;8.252;2022-10-16T11:25:30;100422.47;;;19.36;79.17
46583;BME280;32309;48.858;8.252;2022-10-16T11:29:43;100414.97;;;19.41;78.61
46583;BME280;32309;48.858;8.252;2022-10-16T11:31:49;100409.28;;;19.46;79.33
46583;BME280;32309;48.858;8.252;2022-10-16T11:33:58;100414.13;;;19.51;78.80
46583;BME280;32309;48.858;8.252;2022-10-16T11:36:18;100413.53;;;19.57;80.57
46583;BME280;32309;48.858;8.252;2022-10-16T11:40:31;100408.53;;;19.63;78.60
46583;BME280;32309;48.858;8.252;2022-10-16T11:42:37;100412.81;;;19.65;77.69
46583;BME280;32309;48.858;8.252;2022-10-16T11:46:48;100412.56;;;19.68;78.16
46583;BME280;32309;48.858;8.252;2022-10-16T11:48:56;100414.03;;;19.70;77.42
46583;BME280;32309;48.858;8.252;2022-10-16T11:55:16;100423.72;;;19.79;77.58
46583;BME280;32309;48.858;8.252;2022-10-16T11:57:21;100417.06;;;19.85;79.01
46583;BME280;32309;48.858;8.252;2022-10-16T12:00:24;100424.00;;;19.86;77.03
46583;BME280;32309;48.858;8.252;2022-10-16T12:04:22;100414.44;;;19.85;76.80
46583;BME280;32309;48.858;8.252;2022-10-16T12:08:34;100415.66;;;19.91;76.95
46583;BME280;32309;48.858;8.252;2022-10-16T12:10:34;100407.47;;;19.94;79.39
46583;BME280;32309;48.858;8.252;2022-10-16T12:12:38;100411.09;;;19.93;76.28
46583;BME280;32309;48.858;8.252;2022-10-16T12:14:39;100412.06;;;19.92;76.43
46583;BME280;32309;48.858;8.252;2022-10-16T12:19:14;100404.16;;;19.92;75.22
46583;BME280;32309;48.858;8.252;2022-10-16T12:21:15;100404.00;;;19.93;76.24
46583;BME280;32309;48.858;8.252;2022-10-16T12:23:19;100406.50;;;19.95;77.33
46583;BME280;32309;48.858;8.252;2022-10-16T12:25:30;100408.31;;;19.94;77.00
46583;BME280;32309;48.858;8.252;2022-10-16T12:27:31;100404.81;;;19.94;77.02